Time;durP1;ratioP1;P1;durP2;ratioP2;P2;SDS_P1;SDS_P2;PMS_P1;PMS_P2;Temp;Humidity;BMP_temperature;BMP_pressure;BME280_temperature;BME280_humidity;BME280_pressure;Samples;Min_cycle;Max_cycle;Signal;HPM_P1;HPM_P2
2021/11/01 00:00:37;;;;;;;;;8.00;2.50;;;;;12.99;68.03;100080.56;4981629;28;45434;-83
2021/11/01 00:03:03;;;;;;;;;5.00;3.25;;;;;12.96;68.19;100080.72;4981794;28;45306;-82
2021/11/01 00:05:29;;;;;;;;;2.00;2.00;;;;;12.94;67.91;100080.78;4981250;28;45318;-81
2021/11/01 00:07:54;;;;;;;;;4.75;2.25;;;;;12.96;67.92;100076.28;4981519;28;45222;-81
2021/11/01 00:10:20;;;;;;;;;7.00;3.50;;;;;12.94;68.31;100079.00;4981787;28;46095;-81
2021/11/01 00:12:46;;;;;;;;;5.25;2.50;;;;;12.92;68.09;100070.31;4977575;28;45389;-81
2021/11/01 00:15:12;;;;;;;;;4.25;2.50;;;;;12.91;67.98;100076.50;4966972;28;45234;-81
2021/11/01 00:17:38;;;;;;;;;2.25;2.25;;;;;12.92;67.95;100067.69;4980847;28;45218;-80
2021/11/01 00:20:06;;;;;;;;;5.00;2.50;;;;;12.90;67.93;100066.06;4980565;28;45425;-81
2021/11/01 00:22:34;;;;;;;;;6.50;3.25;;;;;12.91;67.92;100070.41;4980918;28;45424;-77
2021/11/01 00:25:00;;;;;;;;;2.00;2.00;;;;;12.90;68.18;100063.41;4980405;28;45520;-77
2021/11/01 00:27:25;;;;;;;;;4.25;1.75;;;;;12.91;68.05;100060.69;4977772;28;45443;-76
2021/11/01 00:29:51;;;;;;;;;6.00;3.25;;;;;12.91;68.05;100062.50;4980857;28;46138;-76
2021/11/01 00:32:16;;;;;;;;;6.25;3.00;;;;;12.91;68.07;100065.13;4981198;28;45221;-76
2021/11/01 00:34:42;;;;;;;;;3.00;2.50;;;;;12.93;68.17;100055.34;4965817;28;45506;-76
2021/11/01 00:37:09;;;;;;;;;3.00;1.25;;;;;12.91;67.99;100054.59;4961883;28;45472;-76
2021/11/01 00:39:34;;;;;;;;;5.50;1.75;;;;;12.93;68.15;100050.94;4961729;28;45357;-76
2021/11/01 00:42:00;;;;;;;;;2.50;1.75;;;;;12.90;67.99;100042.31;4961828;28;45445;-76
2021/11/01 00:44:25;;;;;;;;;3.00;2.00;;;;;12.89;68.44;100044.09;4961593;28;45492;-76
2021/11/01 00:46:51;;;;;;;;;3.50;3.50;;;;;12.90;68.13;100042.31;4961828;28;45458;-76
2021/11/01 00:49:16;;;;;;;;;2.25;1.25;;;;;12.88;68.04;100028.38;4976846;28;46416;-76
2021/11/01 00:51:43;;;;;;;;;3.25;1.50;;;;;12.90;68.03;100042.31;4978553;28;45449;-77
2021/11/01 00:54:10;;;;;;;;;3.25;2.50;;;;;12.88;68.15;100023.09;4979700;28;45429;-77
2021/11/01 00:56:36;;;;;;;;;1.75;1.75;;;;;12.88;68.21;100015.19;4979834;28;45508;-77
2021/11/01 00:59:02;;;;;;;;;3.50;1.50;;;;;12.88;67.96;100012.53;4971817;28;45366;-77
2021/11/01 01:01:28;;;;;;;;;4.25;2.50;;;;;12.88;68.56;100012.53;4980731;28;45531;-78
2021/11/01 01:03:53;;;;;;;;;1.50;1.50;;;;;12.89;67.97;100009.81;4980994;28;45492;-78
2021/11/01 01:06:19;;;;;;;;;3.75;3.25;;;;;12.86;67.80;100014.41;4980666;28;45480;-78
2021/11/01 01:08:44;;;;;;;;;7.00;2.50;;;;;12.85;68.16;100012.69;4973639;28;45483;-78
2021/11/01 01:11:10;;;;;;;;;2.25;2.25;;;;;12.81;67.86;100002.34;4961371;28;45393;-79
2021/11/01 01:13:37;;;;;;;;;5.25;1.25;;;;;12.83;68.17;100007.53;4961489;28;45433;-79
2021/11/01 01:18:35;;;;;;;;;4.00;1.25;;;;;12.81;68.32;100007.63;4978298;28;46048;-79
2021/11/01 01:22:10;;;;;;;;;5.25;3.25;;;;;12.81;68.28;100004.97;4980752;28;45453;-79
2021/11/01 01:23:47;;;;;;;;;3.50;3.00;;;;;12.82;68.49;100001.38;4980304;28;45420;-79
2021/11/01 01:26:15;;;;;;;;;3.50;2.25;;;;;12.83;68.22;99992.56;4967977;28;45490;-79
2021/11/01 01:28:41;;;;;;;;;2.75;1.75;;;;;12.85;68.15;99994.25;4973448;28;45376;-76
2021/11/01 01:31:06;;;;;;;;;3.00;3.00;;;;;12.83;68.45;99989.91;4980216;28;45297;-79
2021/11/01 01:33:32;;;;;;;;;3.50;3.00;;;;;12.84;68.37;99993.38;4980678;28;45218;-79
2021/11/01 01:35:58;;;;;;;;;3.00;1.25;;;;;12.87;68.33;99997.63;4980486;28;45269;-79
2021/11/01 01:38:24;;;;;;;;;3.00;1.75;;;;;12.84;68.45;99988.09;4979828;28;45975;-79
2021/11/01 01:40:49;;;;;;;;;4.25;3.00;;;;;12.86;67.98;99994.19;4979054;28;45400;-79
2021/11/01 01:43:15;;;;;;;;;2.50;1.50;;;;;12.87;68.23;100001.13;4980378;28;45412;-80
2021/11/01 01:45:41;;;;;;;;;5.00;3.00;;;;;12.87;68.23;99998.50;4980174;28;45480;-79
2021/11/01 01:48:08;;;;;;;;;6.00;3.00;;;;;12.88;68.27;99997.56;4979118;28;45640;-78
2021/11/01 01:50:33;;;;;;;;;3.50;2.25;;;;;12.91;68.60;99988.66;4980160;28;45619;-78
2021/11/01 01:52:59;;;;;;;;;3.75;2.00;;;;;12.89;68.46;99982.59;4980481;28;45511;-77
2021/11/01 01:55:24;;;;;;;;;1.50;1.50;;;;;12.91;67.74;99983.38;4967700;28;45303;-77
2021/11/01 01:57:51;;;;;;;;;1.50;1.50;;;;;12.90;67.99;99979.88;4960516;28;46151;-77
2021/11/01 02:00:39;;;;;;;;;3.00;2.00;;;;;12.90;68.21;99973.75;4960686;28;45571;-77
2021/11/01 02:03:05;;;;;;;;;3.50;1.25;;;;;12.91;67.91;99972.81;4961307;28;45558;-77
2021/11/01 02:05:41;;;;;;;;;2.00;1.50;;;;;12.88;67.94;99973.84;4966704;28;45539;-77
2021/11/01 02:08:09;;;;;;;;;5.50;2.00;;;;;12.88;67.83;99979.13;4968919;28;46849;-78
2021/11/01 02:10:43;;;;;;;;;3.50;2.75;;;;;12.85;68.06;99970.50;4960403;28;45267;-77
2021/11/01 02:13:18;;;;;;;;;4.00;1.25;;;;;12.83;68.07;99975.88;4960580;28;45275;-80
2021/11/01 02:15:49;;;;;;;;;4.25;3.00;;;;;12.83;68.10;99976.72;4960419;28;45528;-80
2021/11/01 02:18:16;;;;;;;;;2.00;1.50;;;;;12.79;67.85;99972.53;4960145;28;46318;-80
2021/11/01 02:20:54;;;;;;;;;3.00;3.00;;;;;12.80;67.92;99970.75;4960585;28;45633;-79
2021/11/01 02:23:27;;;;;;;;;2.75;1.75;;;;;12.82;67.76;99963.59;4960315;28;45291;-78
2021/11/01 02:25:56;;;;;;;;;2.75;2.50;;;;;12.78;68.03;99967.34;4967588;28;45417;-77
2021/11/01 02:28:30;;;;;;;;;1.25;0.50;;;;;12.75;67.99;99954.34;4960400;28;45259;-78
2021/11/01 02:30:57;;;;;;;;;1.25;1.00;;;;;12.78;68.18;99962.09;4960114;28;45747;-76
2021/11/01 02:33:24;;;;;;;;;4.50;2.75;;;;;12.76;67.70;99969.22;4975443;28;45773;-77
2021/11/01 02:35:51;;;;;;;;;5.00;2.50;;;;;12.74;67.86;99977.22;4979832;28;45302;-77
2021/11/01 02:38:19;;;;;;;;;5.25;2.50;;;;;12.73;67.84;99967.63;4979591;28;45728;-76
2021/11/01 02:40:45;;;;;;;;;1.00;1.00;;;;;12.71;67.70;99972.97;4979828;28;45300;-80
2021/11/01 02:43:12;;;;;;;;;3.00;2.75;;;;;12.71;67.84;99974.75;4979485;28;45456;-79
2021/11/01 02:45:38;;;;;;;;;4.00;1.25;;;;;12.70;67.90;99973.03;4982395;28;45159;-79
2021/11/01 02:48:04;;;;;;;;;1.00;1.00;;;;;12.67;67.86;99974.06;4982674;28;45889;-79
2021/11/01 02:50:30;;;;;;;;;2.50;2.00;;;;;12.67;68.23;99975.84;4981406;28;45454;-79
2021/11/01 02:52:55;;;;;;;;;2.00;2.00;;;;;12.68;67.67;99982.84;4982671;28;45420;-79
2021/11/01 02:55:21;;;;;;;;;1.75;1.00;;;;;12.63;67.67;99985.72;4971681;28;45262;-80
2021/11/01 02:57:48;;;;;;;;;3.00;2.00;;;;;12.64;67.66;99973.41;4963389;28;45593;-80
2021/11/01 03:00:17;;;;;;;;;2.00;1.50;;;;;12.62;67.63;99965.56;4963267;28;45228;-80
2021/11/01 03:02:43;;;;;;;;;2.00;1.50;;;;;12.62;67.74;99965.56;4963440;28;45339;-80
2021/11/01 03:05:14;;;;;;;;;5.50;2.00;;;;;12.62;67.74;99972.63;4963479;28;45631;-77
2021/11/01 03:07:41;;;;;;;;;3.50;1.25;;;;;12.60;67.75;99973.56;4963290;28;45524;-76
2021/11/01 03:10:08;;;;;;;;;5.75;1.75;;;;;12.58;67.69;99972.78;4963062;28;45264;-76
2021/11/01 03:12:34;;;;;;;;;2.00;2.00;;;;;12.58;67.66;99969.28;4963483;28;45469;-77
2021/11/01 03:15:02;;;;;;;;;6.00;2.25;;;;;12.57;67.66;99970.22;4962789;28;45493;-77
2021/11/01 03:17:32;;;;;;;;;2.00;1.00;;;;;12.56;67.70;99974.66;4965907;28;46289;-77
2021/11/01 03:20:08;;;;;;;;;3.00;1.25;;;;;12.54;67.25;99971.25;4982524;28;45409;-82
2021/11/01 03:22:44;;;;;;;;;3.00;3.00;;;;;12.52;67.80;99978.38;4981533;28;45482;-83
2021/11/01 03:25:17;;;;;;;;;2.75;1.75;;;;;12.52;67.72;99980.19;4981557;28;45474;-83
2021/11/01 03:27:46;;;;;;;;;4.00;1.75;;;;;12.50;67.61;99990.78;4963831;28;46946;-83
2021/11/01 03:30:14;;;;;;;;;2.25;1.00;;;;;12.48;67.94;99984.75;4982225;28;45598;-82
2021/11/01 03:32:40;;;;;;;;;3.00;2.50;;;;;12.46;67.73;99978.72;4981347;28;45333;-81
2021/11/01 03:35:06;;;;;;;;;6.50;2.25;;;;;12.46;67.79;99987.47;4982428;28;45252;-82
2021/11/01 03:37:33;;;;;;;;;3.00;2.00;;;;;12.44;67.54;99985.84;4982182;28;46310;-81
2021/11/01 03:39:59;;;;;;;;;2.00;1.75;;;;;12.41;67.55;99992.13;4982295;28;45423;-80
2021/11/01 03:42:26;;;;;;;;;4.00;2.50;;;;;12.41;67.69;99999.19;4981621;28;45311;-80
2021/11/01 03:44:59;;;;;;;;;1.00;1.00;;;;;12.41;67.76;100000.03;4976454;28;45529;-79
2021/11/01 03:47:26;;;;;;;;;3.75;2.75;;;;;12.41;67.79;99999.19;4962536;28;46458;-76
2021/11/01 03:49:57;;;;;;;;;1.00;1.00;;;;;12.36;67.71;100002.94;4962746;28;45532;-76
2021/11/01 03:52:25;;;;;;;;;3.00;2.00;;;;;12.36;67.91;100007.34;4962742;28;45212;-80
2021/11/01 03:54:51;;;;;;;;;4.00;1.00;;;;;12.38;67.71;100021.28;4970700;28;45259;-81
2021/11/01 03:57:19;;;;;;;;;3.25;3.25;;;;;12.35;67.97;100011.75;4961469;28;45385;-82
2021/11/01 03:59:45;;;;;;;;;3.25;2.25;;;;;12.36;67.93;100024.00;4962389;28;45228;-80
2021/11/01 04:02:14;;;;;;;;;1.50;1.00;;;;;12.32;67.61;100017.16;4962457;28;45220;-81
2021/11/01 04:04:48;;;;;;;;;6.00;2.00;;;;;12.32;67.80;100014.53;4962542;28;45528;-80
2021/11/01 04:07:14;;;;;;;;;3.00;1.50;;;;;12.32;68.07;100011.91;4978309;28;46434;-80
2021/11/01 04:09:40;;;;;;;;;2.00;0.50;;;;;12.33;68.02;100016.25;4980942;28;45576;-80
2021/11/01 04:12:06;;;;;;;;;3.00;1.00;;;;;12.34;67.92;100011.84;4981822;28;45376;-82
2021/11/01 04:14:40;;;;;;;;;2.50;2.00;;;;;12.36;68.26;100018.75;4981556;28;45444;-79
2021/11/01 04:17:11;;;;;;;;;5.00;2.50;;;;;12.36;68.21;100025.78;4964084;28;47269;-78
2021/11/01 04:19:45;;;;;;;;;4.75;2.50;;;;;12.36;68.04;100021.38;4975034;28;45635;-79
2021/11/01 04:22:11;;;;;;;;;2.25;2.00;;;;;12.37;68.11;100020.41;4962272;28;45358;-79
2021/11/01 04:24:37;;;;;;;;;3.50;2.00;;;;;12.40;68.53;100021.19;4962182;28;45227;-80
2021/11/01 04:27:03;;;;;;;;;2.25;2.00;;;;;12.44;68.40;100025.38;4962790;28;45343;-80
2021/11/01 04:29:32;;;;;;;;;2.00;2.00;;;;;12.44;67.91;100025.38;4961841;28;45390;-80
2021/11/01 04:32:08;;;;;;;;;3.50;2.00;;;;;12.44;68.46;100030.66;4962709;28;45309;-81
2021/11/01 04:34:37;;;;;;;;;3.25;3.25;;;;;12.44;68.10;100034.16;4981595;28;45465;-80
2021/11/01 04:37:02;;;;;;;;;1.25;1.25;;;;;12.45;67.93;100038.47;4980870;28;45590;-80
2021/11/01 04:39:37;;;;;;;;;5.00;1.50;;;;;12.44;67.83;100039.44;4980742;28;45309;-80
2021/11/01 04:53:11;;;;;;;;;2.00;1.00;;;;;12.45;68.22;100029.72;4945545;28;45370;-80
2021/11/01 04:55:36;;;;;;;;;3.00;1.00;;;;;12.46;68.02;100024.38;4961715;28;45291;-79
2021/11/01 04:58:02;;;;;;;;;1.00;1.00;;;;;12.48;68.32;100019.00;4961439;28;45587;-83
2021/11/01 05:00:28;;;;;;;;;3.25;1.00;;;;;12.48;67.69;100016.38;4961408;28;45611;-83
2021/11/01 05:03:09;;;;;;;;;2.25;0.00;;;;;12.48;68.06;100021.66;4960439;28;45315;-83
2021/11/01 05:05:34;;;;;;;;;3.00;1.50;;;;;12.47;68.25;100025.25;4958372;28;46975;-81
2021/11/01 05:08:00;;;;;;;;;1.00;0.50;;;;;12.49;67.88;100010.19;4980539;28;45344;-81
2021/11/01 05:10:34;;;;;;;;;3.00;1.00;;;;;12.46;68.08;100019.09;4967382;28;45509;-81
2021/11/01 05:13:06;;;;;;;;;1.00;1.00;;;;;12.49;68.31;100013.66;4961709;28;45215;-78
2021/11/01 05:15:39;;;;;;;;;1.00;1.00;;;;;12.51;68.04;100020.63;4943686;28;46969;-79
2021/11/01 05:21:15;;;;;;;;;2.00;0.00;;;;;12.49;68.07;100011.00;4965481;28;45298;-81
2021/11/01 05:23:49;;;;;;;;;0.75;0.75;;;;;12.52;68.08;100017.91;4961382;28;45284;-82
2021/11/01 05:26:21;;;;;;;;;2.00;1.00;;;;;12.51;68.36;100018.88;4979758;28;45311;-79
2021/11/01 05:28:54;;;;;;;;;3.00;1.00;;;;;12.54;68.29;100016.06;4973517;28;45662;-76
2021/11/01 05:31:22;;;;;;;;;0.75;0.75;;;;;12.54;68.02;100020.50;4980583;28;45334;-77
2021/11/01 05:36:16;;;;;;;;;0.75;0.75;;;;;12.58;67.97;100022.88;4980417;28;45226;-79
2021/11/01 05:38:41;;;;;;;;;4.00;1.00;;;;;12.57;67.71;100021.16;4967600;28;45310;-79
2021/11/01 05:41:08;;;;;;;;;0.25;0.25;;;;;12.59;68.34;100023.72;4961168;28;45253;-79
2021/11/01 05:43:34;;;;;;;;;4.00;1.00;;;;;12.57;68.36;100029.06;4960924;28;45283;-79
2021/11/01 05:46:00;;;;;;;;;2.00;1.25;;;;;12.58;68.25;100020.25;4961007;28;45420;-79
2021/11/01 05:48:25;;;;;;;;;1.75;0.75;;;;;12.59;67.88;100026.38;4968029;28;46356;-79
2021/11/01 05:50:51;;;;;;;;;1.50;1.00;;;;;12.59;68.17;100027.19;4980288;28;45389;-79
2021/11/01 05:53:16;;;;;;;;;1.75;1.00;;;;;12.59;68.14;100029.84;4980424;28;45456;-79
2021/11/01 06:03:37;;;;;;;;;1.00;1.00;;;;;12.56;67.60;100040.56;4980034;28;45299;-80
2021/11/01 06:06:24;;;;;;;;;3.00;2.00;;;;;12.57;67.67;100044.88;4980073;28;45449;-77
2021/11/01 06:14:17;;;;;;;;;0.00;0.00;;;;;12.48;67.80;100054.13;4980099;28;45529;-79
2021/11/01 06:16:43;;;;;;;;;2.25;1.00;;;;;12.44;67.40;100046.47;4980187;28;45337;-81
2021/11/01 06:19:08;;;;;;;;;2.00;1.00;;;;;12.42;67.75;100062.34;4979116;28;45313;-79
2021/11/01 06:21:34;;;;;;;;;2.00;1.00;;;;;12.42;67.57;100058.88;4964087;28;45242;-79
2021/11/01 06:24:06;;;;;;;;;4.00;2.00;;;;;12.41;67.71;100065.06;4968137;28;45199;-79
2021/11/01 06:26:32;;;;;;;;;1.75;1.25;;;;;12.37;68.02;100065.22;4981626;28;45341;-79
2021/11/01 06:29:04;;;;;;;;;3.25;1.00;;;;;12.36;67.48;100070.59;4963894;28;46205;-79
2021/11/01 06:31:34;;;;;;;;;1.50;1.50;;;;;12.35;67.66;100072.38;4964639;28;45595;-79
2021/11/01 06:34:20;;;;;;;;;1.50;0.00;;;;;12.31;67.46;100065.56;4983535;28;45475;-79
2021/11/01 06:40:02;;;;;;;;;2.75;1.25;;;;;12.24;67.36;100072.94;4929268;28;46187;-79
2021/11/01 06:42:57;;;;;;;;;2.75;2.00;;;;;12.20;67.48;100081.88;4983320;28;45213;-77
2021/11/01 07:15:19;;;;;;;;;3.00;1.00;;;;;12.01;68.50;100087.22;4977601;28;45652;-77
2021/11/01 07:17:55;;;;;;;;;3.00;1.50;;;;;12.00;68.59;100091.63;4963231;28;45412;-77
2021/11/01 07:20:51;;;;;;;;;1.50;1.50;;;;;12.03;68.76;100093.25;4980095;28;45302;-77
2021/11/01 09:03:53;;;;;;;;;0.00;0.00;;;;;12.79;68.38;100122.03;4980958;28;45243;-77
2021/11/01 09:20:27;;;;;;;;;0.50;0.50;;;;;13.04;68.03;100124.19;4979896;28;45466;-80
2021/11/01 09:27:34;;;;;;;;;3.25;0.50;;;;;13.20;68.06;100119.88;4975905;28;45263;-80
2021/11/01 09:30:29;;;;;;;;;0.00;0.00;;;;;13.23;68.01;100122.38;4961043;28;45540;-80
2021/11/01 09:35:53;;;;;;;;;0.25;0.00;;;;;13.28;67.52;100115.88;4978118;28;45539;-79
2021/11/01 09:41:10;;;;;;;;;0.00;0.00;;;;;13.28;67.12;100110.59;4963388;28;45547;-79
2021/11/01 09:43:37;;;;;;;;;1.50;0.00;;;;;13.31;67.03;100114.03;4979429;28;45422;-79
2021/11/01 09:46:09;;;;;;;;;2.75;0.75;;;;;13.33;66.94;100114.81;4970603;28;46886;-79
2021/11/01 09:48:36;;;;;;;;;3.25;1.00;;;;;13.37;67.37;100105.75;4960878;28;45333;-79
2021/11/01 09:51:02;;;;;;;;;0.75;0.75;;;;;13.40;66.66;100108.25;4943375;28;45340;-79
2021/11/01 09:53:29;;;;;;;;;0.00;0.00;;;;;13.42;66.74;100110.78;4959603;28;45635;-79
2021/11/01 10:01:16;;;;;;;;;0.00;0.00;;;;;13.50;66.28;100100.66;4978479;28;45257;-80
2021/11/01 10:03:47;;;;;;;;;0.75;0.75;;;;;13.56;65.89;100102.09;4978480;28;46533;-80
2021/11/01 10:06:22;;;;;;;;;0.50;0.00;;;;;13.60;66.22;100104.53;4979926;28;46445;-80
2021/11/01 10:08:59;;;;;;;;;0.75;0.50;;;;;13.63;66.12;100098.19;4975808;28;45341;-80
2021/11/01 10:11:30;;;;;;;;;0.00;0.00;;;;;13.68;66.03;100104.06;4960691;28;45295;-80
2021/11/01 10:13:59;;;;;;;;;0.50;0.50;;;;;13.70;66.35;100099.56;4971767;28;46174;-80
2021/11/01 10:19:37;;;;;;;;;0.00;0.00;;;;;13.76;65.83;100097.50;4969189;28;45282;-80
2021/11/01 10:22:06;;;;;;;;;2.50;1.00;;;;;13.76;65.00;100097.50;4963139;28;45409;-80
2021/11/01 10:24:39;;;;;;;;;3.50;0.00;;;;;13.81;65.08;100106.03;4973063;28;45488;-80
2021/11/01 10:27:10;;;;;;;;;0.00;0.00;;;;;13.83;64.77;100098.84;4968086;28;45381;-80
2021/11/01 10:29:52;;;;;;;;;2.00;1.50;;;;;13.88;64.63;100099.44;4961055;28;45380;-79
2021/11/01 10:32:39;;;;;;;;;1.00;1.00;;;;;13.89;64.86;100092.38;4974244;28;45438;-80
2021/11/01 10:35:24;;;;;;;;;0.75;0.00;;;;;13.93;64.95;100100.03;4975079;28;46151;-80
2021/11/01 10:37:59;;;;;;;;;0.25;0.25;;;;;13.95;65.07;100106.09;4978446;28;45802;-80
2021/11/01 10:40:27;;;;;;;;;0.25;0.00;;;;;13.98;64.47;100101.56;4979166;28;45834;-80
2021/11/01 10:42:53;;;;;;;;;0.00;0.00;;;;;14.02;66.03;100097.81;4979529;28;45515;-77
2021/11/01 10:56:35;;;;;;;;;1.75;1.00;;;;;14.15;65.14;100098.78;4975916;28;45544;-76
2021/11/01 10:59:17;;;;;;;;;0.00;0.00;;;;;14.50;64.82;100083.56;4974619;28;45527;-78
2021/11/01 11:12:57;;;;;;;;;0.75;0.00;;;;;15.14;62.00;100057.69;4973789;28;45413;-77
2021/11/01 11:15:25;;;;;;;;;0.75;0.75;;;;;15.21;61.68;100058.19;4981691;28;45372;-77
2021/11/01 11:18:14;;;;;;;;;1.00;0.00;;;;;15.28;61.22;100060.31;4981880;28;45498;-76
2021/11/01 11:47:47;;;;;;;;;0.00;0.00;;;;;15.69;59.84;100064.84;4921838;28;45461;-78
2021/11/01 11:50:17;;;;;;;;;3.75;0.25;;;;;15.69;58.87;100070.13;4948617;28;46325;-77
2021/11/01 11:52:43;;;;;;;;;2.00;1.00;;;;;15.67;58.07;100057.00;4962613;28;45429;-77
2021/11/01 11:55:21;;;;;;;;;0.00;0.00;;;;;15.63;57.39;100056.34;4971348;28;45242;-79
2021/11/01 11:57:59;;;;;;;;;0.00;0.00;;;;;15.60;57.67;100053.06;4979359;28;45224;-77
2021/11/01 12:00:29;;;;;;;;;0.00;0.00;;;;;15.61;57.16;100052.09;4978703;28;46529;-77
2021/11/01 12:02:57;;;;;;;;;0.00;0.00;;;;;15.65;56.85;100050.97;4981705;28;45373;-77
2021/11/01 12:05:50;;;;;;;;;0.00;0.00;;;;;15.67;54.96;100034.94;4982053;28;45520;-77
2021/11/01 12:08:36;;;;;;;;;0.75;0.75;;;;;15.71;56.24;100037.28;4980569;28;45382;-78
2021/11/01 12:18:53;;;;;;;;;0.75;0.25;;;;;15.80;55.85;100045.59;4980417;28;45465;-77
2021/11/01 12:21:19;;;;;;;;;0.00;0.00;;;;;15.78;55.88;100036.91;4980891;28;45397;-78
2021/11/01 12:23:45;;;;;;;;;0.00;0.00;;;;;15.72;55.94;100036.34;4981445;28;45262;-77
2021/11/01 12:26:13;;;;;;;;;3.00;2.00;;;;;15.69;55.38;100039.19;4980827;28;45227;-79
2021/11/01 12:28:41;;;;;;;;;2.50;0.00;;;;;15.65;54.74;100024.47;4965001;28;45420;-77
2021/11/01 12:31:13;;;;;;;;;1.00;0.75;;;;;15.70;56.34;100027.66;4954019;28;46622;-78
2021/11/01 12:33:45;;;;;;;;;1.00;0.25;;;;;15.78;57.32;100026.31;4980671;28;45405;-78
2021/11/01 12:36:12;;;;;;;;;1.75;1.00;;;;;15.81;55.22;100029.59;4980951;28;45310;-79
2021/11/01 12:38:50;;;;;;;;;0.00;0.00;;;;;15.83;56.08;100016.22;4973687;28;45422;-78
2021/11/01 12:41:51;;;;;;;;;2.75;1.00;;;;;15.81;56.43;100013.69;4980411;28;46227;-79
2021/11/01 12:49:44;;;;;;;;;0.00;0.00;;;;;15.82;55.25;99993.34;4981030;28;45809;-79
2021/11/01 12:57:43;;;;;;;;;1.50;0.00;;;;;16.01;54.75;99992.09;4963971;28;45457;-79
2021/11/01 13:00:10;;;;;;;;;1.50;1.00;;;;;16.04;55.38;99986.59;4974881;28;45528;-79
2021/11/01 13:02:44;;;;;;;;;0.25;0.25;;;;;16.06;54.95;99984.69;4953444;28;47416;-79
2021/11/01 13:05:20;;;;;;;;;0.00;0.00;;;;;16.10;56.26;99977.41;4962240;28;45458;-79
2021/11/01 13:08:02;;;;;;;;;3.75;2.00;;;;;16.10;55.55;99982.72;4953365;28;45487;-78
2021/11/01 13:10:38;;;;;;;;;1.75;0.75;;;;;16.13;55.77;99974.53;4970565;28;45535;-78
2021/11/01 13:18:30;;;;;;;;;2.00;1.00;;;;;16.26;54.96;99953.31;4980611;28;45245;-78
2021/11/01 13:21:01;;;;;;;;;2.00;1.00;;;;;16.31;55.97;99945.88;4980679;28;45235;-78
2021/11/01 13:23:32;;;;;;;;;0.25;0.00;;;;;16.32;54.75;99942.31;4963091;28;46182;-79
2021/11/01 13:36:51;;;;;;;;;2.00;0.75;;;;;16.27;53.13;99939.13;4971369;28;45511;-79
2021/11/01 13:39:24;;;;;;;;;1.25;0.00;;;;;16.29;52.72;99943.34;4966956;28;45547;-79
2021/11/01 13:41:50;;;;;;;;;1.50;1.00;;;;;16.33;53.64;99949.28;4971813;28;46157;-79
2021/11/01 13:44:21;;;;;;;;;0.00;0.00;;;;;16.38;53.40;99947.16;4946902;28;46926;-79
2021/11/01 13:46:50;;;;;;;;;3.25;2.00;;;;;16.37;53.66;99948.09;4975752;28;45272;-79
2021/11/01 13:49:17;;;;;;;;;2.00;0.00;;;;;16.35;53.89;99947.38;4950945;28;45729;-80
2021/11/01 13:51:46;;;;;;;;;0.00;0.00;;;;;16.37;54.24;99934.84;4951822;28;45673;-78
2021/11/01 13:56:45;;;;;;;;;0.00;0.00;;;;;16.33;53.34;99917.47;4968331;28;45422;-79
2021/11/01 14:18:47;;;;;;;;;2.25;1.25;;;;;16.08;57.16;99993.41;4974633;28;45552;-80
2021/11/01 15:04:45;;;;;;;;;2.25;0.00;;;;;14.84;61.67;99986.28;4980698;28;45509;-77
2021/11/01 16:18:38;;;;;;;;;5.25;5.25;;;;;13.55;64.87;99981.59;4975167;28;47220;-76
2021/11/01 16:21:04;;;;;;;;;4.00;3.25;;;;;13.51;64.78;99980.91;4980436;28;45387;-76
2021/11/01 16:25:56;;;;;;;;;1.25;1.25;;;;;13.47;65.11;99979.41;4971515;28;45433;-76
2021/11/01 16:28:27;;;;;;;;;1.00;1.00;;;;;13.40;64.71;99971.00;4976656;28;45299;-77
2021/11/01 16:31:23;;;;;;;;;1.50;1.50;;;;;13.39;64.91;99979.84;4977586;28;45480;-77
2021/11/01 16:33:54;;;;;;;;;2.50;1.50;;;;;13.33;64.85;99974.91;4972666;28;47062;-77
2021/11/01 16:39:09;;;;;;;;;2.75;1.50;;;;;13.23;65.04;99980.72;4973147;28;45591;-77
2021/11/01 16:41:35;;;;;;;;;3.50;2.50;;;;;13.19;65.07;99981.81;4980985;28;45480;-77
2021/11/01 16:44:10;;;;;;;;;4.25;3.25;;;;;13.16;65.07;99984.66;4979727;28;45255;-77
2021/11/01 16:46:36;;;;;;;;;4.00;4.00;;;;;13.11;65.10;99986.69;4980453;28;46001;-76
2021/11/01 16:49:01;;;;;;;;;3.50;2.75;;;;;13.06;64.88;99981.69;4979023;28;45407;-77
2021/11/01 16:51:27;;;;;;;;;3.25;3.25;;;;;13.04;65.12;99999.34;4980550;28;45536;-77
2021/11/01 16:53:52;;;;;;;;;4.00;4.00;;;;;13.00;65.35;100003.09;4980535;28;45973;-77
2021/11/01 16:59:12;;;;;;;;;2.75;2.75;;;;;12.91;65.43;100001.84;4978555;28;45631;-77
2021/11/01 17:01:42;;;;;;;;;3.50;3.50;;;;;12.89;65.65;100008.97;4975577;28;45237;-76
2021/11/01 17:04:11;;;;;;;;;5.75;4.00;;;;;12.83;65.36;100011.00;4979476;28;45698;-76
2021/11/01 17:25:59;;;;;;;;;7.25;6.00;;;;;12.60;66.09;100007.81;4979143;28;45457;-77
2021/11/01 18:53:11;;;;;;;;;25.50;23.00;;;;;12.19;67.18;100068.81;4974755;28;45393;-76
2021/11/01 18:55:37;;;;;;;;;22.50;20.75;;;;;12.14;67.12;100064.63;4977041;28;45288;-76
2021/11/01 18:58:05;;;;;;;;;23.50;19.50;;;;;12.13;66.93;100065.56;4979898;28;45281;-77
2021/11/01 19:00:36;;;;;;;;;20.50;20.00;;;;;12.11;67.00;100066.53;4969300;28;45830;-76
2021/11/01 19:03:03;;;;;;;;;21.75;20.75;;;;;12.10;66.95;100062.22;4971916;28;45680;-76
2021/11/01 19:05:55;;;;;;;;;24.50;21.25;;;;;12.05;67.04;100062.41;4963456;28;45737;-76
2021/11/01 19:17:41;;;;;;;;;22.25;22.25;;;;;11.98;67.33;100055.75;4982564;28;45735;-76
2021/11/01 20:07:00;;;;;;;;;45.75;37.50;;;;;11.59;67.50;100042.69;4928883;28;46131;-76
2021/11/01 20:12:37;;;;;;;;;45.75;38.50;;;;;11.58;67.64;100041.00;4969581;28;46020;-76
2021/11/01 21:27:00;;;;;;;;;21.25;21.00;;;;;11.35;69.16;100032.44;4972001;28;45365;-77
2021/11/01 21:29:28;;;;;;;;;26.00;22.75;;;;;11.39;69.29;100033.97;4977388;28;45228;-77
2021/11/01 21:31:53;;;;;;;;;20.00;19.75;;;;;11.41;68.93;100032.13;4980566;28;45277;-76
2021/11/01 21:34:28;;;;;;;;;15.50;15.00;;;;;11.44;69.27;100029.34;4975931;28;45488;-78
2021/11/01 21:36:54;;;;;;;;;12.00;12.00;;;;;11.50;69.45;100020.31;4979416;28;46365;-77
2021/11/01 21:39:20;;;;;;;;;16.75;15.00;;;;;11.53;69.51;100024.59;4977911;28;45406;-77
2021/11/01 21:41:46;;;;;;;;;19.75;15.75;;;;;11.57;69.55;100021.72;4978856;28;45504;-77
2021/11/01 21:44:11;;;;;;;;;18.25;16.00;;;;;11.61;69.88;100013.66;4978587;28;45247;-77
2021/11/01 21:46:36;;;;;;;;;18.50;15.50;;;;;11.65;69.44;100021.34;4975848;28;46521;-77
2021/11/01 21:49:02;;;;;;;;;18.25;17.00;;;;;11.65;69.65;100013.47;4960156;28;45452;-77
2021/11/01 21:51:29;;;;;;;;;19.25;16.50;;;;;11.68;69.42;100013.28;4962105;28;45413;-77
2021/11/01 21:56:43;;;;;;;;;15.75;14.25;;;;;11.75;69.63;100010.38;4959062;28;46031;-77
2021/11/01 22:10:38;;;;;;;;;27.25;23.50;;;;;11.84;69.39;99994.09;4934440;28;45688;-77
2021/11/01 22:21:10;;;;;;;;;18.00;16.50;;;;;11.89;69.21;99983.34;4977133;28;45405;-77
2021/11/01 22:34:33;;;;;;;;;13.00;12.00;;;;;11.88;68.98;99987.75;4979657;28;45345;-76
2021/11/01 22:39:56;;;;;;;;;13.25;12.50;;;;;11.89;69.21;99978.06;4979091;28;45344;-76
2021/11/01 22:42:40;;;;;;;;;14.25;14.00;;;;;11.91;68.92;99978.84;4971617;28;45716;-76
2021/11/01 22:58:28;;;;;;;;;12.75;12.50;;;;;11.90;69.03;99969.25;4979314;28;45275;-77
2021/11/01 23:00:59;;;;;;;;;11.25;9.25;;;;;11.89;68.77;99965.75;4971902;28;46035;-83
2021/11/01 23:03:30;;;;;;;;;14.00;11.50;;;;;11.90;68.97;99959.53;4970260;28;45401;-85
2021/11/01 23:33:21;;;;;;;;;8.50;7.25;;;;;11.82;68.82;99948.56;4976382;28;47066;-83
2021/11/01 23:35:48;;;;;;;;;7.75;6.00;;;;;11.81;69.14;99949.50;4982273;28;45280;-82
2021/11/01 23:38:14;;;;;;;;;11.25;7.00;;;;;11.84;69.12;99953.75;4980790;28;45180;-81
2021/11/01 23:40:41;;;;;;;;;9.00;7.75;;;;;11.82;68.94;99945.94;4982416;28;45278;-82
2021/11/01 23:43:07;;;;;;;;;9.00;8.00;;;;;11.81;68.75;99938.97;4973692;28;45446;-81
2021/11/01 23:45:37;;;;;;;;;7.25;6.00;;;;;11.81;69.08;99938.97;4964709;28;45315;-81
2021/11/01 23:48:03;;;;;;;;;7.00;6.50;;;;;11.80;69.05;99938.09;4982269;28;45385;-81
2021/11/01 23:50:33;;;;;;;;;8.75;6.00;;;;;11.81;68.97;99941.59;4982348;28;45496;-81
2021/11/01 23:53:05;;;;;;;;;12.50;10.75;;;;;11.78;68.94;99934.69;4981238;28;46286;-82
2021/11/01 23:55:31;;;;;;;;;11.00;7.00;;;;;11.80;69.15;99938.09;4982236;28;45661;-81
2021/11/01 23:57:56;;;;;;;;;9.25;8.00;;;;;11.80;69.14;99937.28;4982088;28;45270;-82
